sensor_id;sensor_type;location;lat;lon;timestamp;temperature;humidity
51655;DHT22;37732;53.106;7.030;2023-08-17T00:01:36;16.00;99.90
51655;DHT22;37732;53.106;7.030;2023-08-17T00:04:02;16.00;99.90
51655;DHT22;37732;53.106;7.030;2023-08-17T00:06:28;16.00;99.90
51655;DHT22;37732;53.106;7.030;2023-08-17T00:08:55;16.00;99.90
51655;DHT22;37732;53.106;7.030;2023-08-17T00:11:23;16.00;99.90
51655;DHT22;37732;53.106;7.030;2023-08-17T00:13:51;16.00;99.90
51655;DHT22;37732;53.106;7.030;2023-08-17T00:16:17;16.00;99.90
51655;DHT22;37732;53.106;7.030;2023-08-17T00:18:45;16.00;99.90
51655;DHT22;37732;53.106;7.030;2023-08-17T00:21:11;16.00;99.90
51655;DHT22;37732;53.106;7.030;2023-08-17T00:23:38;16.00;99.90
51655;DHT22;37732;53.106;7.030;2023-08-17T00:26:06;16.00;99.90
51655;DHT22;37732;53.106;7.030;2023-08-17T00:28:34;16.00;99.90
51655;DHT22;37732;53.106;7.030;2023-08-17T00:31:02;15.90;99.90
51655;DHT22;37732;53.106;7.030;2023-08-17T00:33:29;15.90;99.90
51655;DHT22;37732;53.106;7.030;2023-08-17T00:35:57;15.90;99.90
51655;DHT22;37732;53.106;7.030;2023-08-17T00:38:25;15.90;99.90
51655;DHT22;37732;53.106;7.030;2023-08-17T00:40:52;15.90;99.90
51655;DHT22;37732;53.106;7.030;2023-08-17T00:43:18;15.90;99.90
51655;DHT22;37732;53.106;7.030;2023-08-17T00:45:45;15.80;99.90
51655;DHT22;37732;53.106;7.030;2023-08-17T00:48:12;15.90;99.90
51655;DHT22;37732;53.106;7.030;2023-08-17T00:50:40;15.80;99.90
51655;DHT22;37732;53.106;7.030;2023-08-17T00:53:08;15.80;99.90
51655;DHT22;37732;53.106;7.030;2023-08-17T00:55:42;15.80;99.90
51655;DHT22;37732;53.106;7.030;2023-08-17T00:58:09;15.80;99.90
51655;DHT22;37732;53.106;7.030;2023-08-17T01:03:11;15.70;99.90
51655;DHT22;37732;53.106;7.030;2023-08-17T01:05:38;15.70;99.90
51655;DHT22;37732;53.106;7.030;2023-08-17T01:08:06;15.70;99.90
51655;DHT22;37732;53.106;7.030;2023-08-17T01:14:10;15.80;99.90
51655;DHT22;37732;53.106;7.030;2023-08-17T01:17:10;15.70;99.90
51655;DHT22;37732;53.106;7.030;2023-08-17T01:19:39;15.80;99.90
51655;DHT22;37732;53.106;7.030;2023-08-17T01:22:08;15.80;99.90
51655;DHT22;37732;53.106;7.030;2023-08-17T01:24:38;15.80;99.90
51655;DHT22;37732;53.106;7.030;2023-08-17T01:27:04;15.80;99.90
51655;DHT22;37732;53.106;7.030;2023-08-17T01:29:30;15.80;99.90
51655;DHT22;37732;53.106;7.030;2023-08-17T01:32:25;15.80;99.90
51655;DHT22;37732;53.106;7.030;2023-08-17T01:35:01;15.80;99.90
51655;DHT22;37732;53.106;7.030;2023-08-17T01:37:31;15.80;99.90
51655;DHT22;37732;53.106;7.030;2023-08-17T01:40:01;15.80;99.90
51655;DHT22;37732;53.106;7.030;2023-08-17T01:42:28;15.60;99.90
51655;DHT22;37732;53.106;7.030;2023-08-17T01:44:56;15.80;99.90
51655;DHT22;37732;53.106;7.030;2023-08-17T01:47:24;15.90;99.90
51655;DHT22;37732;53.106;7.030;2023-08-17T01:49:51;15.90;99.90
51655;DHT22;37732;53.106;7.030;2023-08-17T01:52:18;15.90;99.90
51655;DHT22;37732;53.106;7.030;2023-08-17T01:54:46;15.90;99.90
51655;DHT22;37732;53.106;7.030;2023-08-17T01:57:13;15.90;99.90
51655;DHT22;37732;53.106;7.030;2023-08-17T01:59:42;15.90;99.90
51655;DHT22;37732;53.106;7.030;2023-08-17T02:02:10;15.90;99.90
51655;DHT22;37732;53.106;7.030;2023-08-17T02:04:38;15.90;99.90
51655;DHT22;37732;53.106;7.030;2023-08-17T02:07:06;15.90;99.90
51655;DHT22;37732;53.106;7.030;2023-08-17T02:09:33;15.90;99.90
51655;DHT22;37732;53.106;7.030;2023-08-17T02:12:01;15.90;99.90
51655;DHT22;37732;53.106;7.030;2023-08-17T02:14:29;15.90;99.90
51655;DHT22;37732;53.106;7.030;2023-08-17T02:16:56;15.90;99.90
51655;DHT22;37732;53.106;7.030;2023-08-17T02:19:24;15.90;99.90
51655;DHT22;37732;53.106;7.030;2023-08-17T02:21:50;15.90;99.90
51655;DHT22;37732;53.106;7.030;2023-08-17T02:24:20;15.90;99.90
51655;DHT22;37732;53.106;7.030;2023-08-17T02:26:49;15.90;99.90
51655;DHT22;37732;53.106;7.030;2023-08-17T02:29:16;15.90;99.90
51655;DHT22;37732;53.106;7.030;2023-08-17T02:31:43;15.90;99.90
51655;DHT22;37732;53.106;7.030;2023-08-17T02:34:09;15.90;99.90
51655;DHT22;37732;53.106;7.030;2023-08-17T02:36:37;15.90;99.90
51655;DHT22;37732;53.106;7.030;2023-08-17T02:39:04;16.00;99.90
51655;DHT22;37732;53.106;7.030;2023-08-17T02:41:31;16.00;99.90
51655;DHT22;37732;53.106;7.030;2023-08-17T02:44:00;15.90;99.90
51655;DHT22;37732;53.106;7.030;2023-08-17T02:46:26;15.90;99.90
51655;DHT22;37732;53.106;7.030;2023-08-17T02:48:56;15.90;99.90
51655;DHT22;37732;53.106;7.030;2023-08-17T02:51:24;15.90;99.90
51655;DHT22;37732;53.106;7.030;2023-08-17T02:53:51;15.80;99.90
51655;DHT22;37732;53.106;7.030;2023-08-17T02:56:19;15.80;99.90
51655;DHT22;37732;53.106;7.030;2023-08-17T02:58:47;15.80;99.90
51655;DHT22;37732;53.106;7.030;2023-08-17T03:01:14;15.80;99.90
51655;DHT22;37732;53.106;7.030;2023-08-17T03:03:40;15.80;99.90
51655;DHT22;37732;53.106;7.030;2023-08-17T03:06:07;15.70;99.90
51655;DHT22;37732;53.106;7.030;2023-08-17T03:08:35;15.80;99.90
51655;DHT22;37732;53.106;7.030;2023-08-17T03:11:03;15.80;99.90
51655;DHT22;37732;53.106;7.030;2023-08-17T03:13:31;15.70;99.90
51655;DHT22;37732;53.106;7.030;2023-08-17T03:15:57;15.70;99.90
51655;DHT22;37732;53.106;7.030;2023-08-17T03:18:26;15.80;99.90
51655;DHT22;37732;53.106;7.030;2023-08-17T03:20:57;15.70;99.90
51655;DHT22;37732;53.106;7.030;2023-08-17T03:23:26;15.70;99.90
51655;DHT22;37732;53.106;7.030;2023-08-17T03:25:54;15.70;99.90
51655;DHT22;37732;53.106;7.030;2023-08-17T03:28:22;15.80;99.90
51655;DHT22;37732;53.106;7.030;2023-08-17T03:30:48;15.70;99.90
51655;DHT22;37732;53.106;7.030;2023-08-17T03:33:14;15.80;99.90
51655;DHT22;37732;53.106;7.030;2023-08-17T03:35:40;15.70;99.90
51655;DHT22;37732;53.106;7.030;2023-08-17T03:38:08;15.80;99.90
51655;DHT22;37732;53.106;7.030;2023-08-17T03:40:34;15.80;99.90
51655;DHT22;37732;53.106;7.030;2023-08-17T03:42:59;15.70;99.90
51655;DHT22;37732;53.106;7.030;2023-08-17T03:45:25;15.80;99.90
51655;DHT22;37732;53.106;7.030;2023-08-17T03:47:51;15.80;99.90
51655;DHT22;37732;53.106;7.030;2023-08-17T03:50:18;15.80;99.90
51655;DHT22;37732;53.106;7.030;2023-08-17T03:52:46;15.80;99.90
51655;DHT22;37732;53.106;7.030;2023-08-17T03:55:14;15.80;99.90
51655;DHT22;37732;53.106;7.030;2023-08-17T03:57:43;16.10;99.90
51655;DHT22;37732;53.106;7.030;2023-08-17T04:00:11;15.70;99.90
51655;DHT22;37732;53.106;7.030;2023-08-17T04:02:37;15.70;99.90
51655;DHT22;37732;53.106;7.030;2023-08-17T04:05:05;15.80;99.90
51655;DHT22;37732;53.106;7.030;2023-08-17T04:07:33;15.80;99.90
51655;DHT22;37732;53.106;7.030;2023-08-17T04:09:59;15.80;99.90
51655;DHT22;37732;53.106;7.030;2023-08-17T04:12:29;15.80;99.90
51655;DHT22;37732;53.106;7.030;2023-08-17T04:14:55;15.70;99.90
51655;DHT22;37732;53.106;7.030;2023-08-17T04:17:21;15.80;99.90
51655;DHT22;37732;53.106;7.030;2023-08-17T04:19:47;15.80;99.90
51655;DHT22;37732;53.106;7.030;2023-08-17T04:22:15;15.80;99.90
51655;DHT22;37732;53.106;7.030;2023-08-17T04:24:42;15.80;99.90
51655;DHT22;37732;53.106;7.030;2023-08-17T04:27:08;15.80;99.90
51655;DHT22;37732;53.106;7.030;2023-08-17T04:29:34;15.80;99.90
51655;DHT22;37732;53.106;7.030;2023-08-17T04:32:01;15.80;99.90
51655;DHT22;37732;53.106;7.030;2023-08-17T04:34:27;15.80;99.90
51655;DHT22;37732;53.106;7.030;2023-08-17T04:36:55;15.70;99.90
51655;DHT22;37732;53.106;7.030;2023-08-17T04:39:23;15.80;99.90
51655;DHT22;37732;53.106;7.030;2023-08-17T04:41:50;15.80;99.90
51655;DHT22;37732;53.106;7.030;2023-08-17T04:44:16;15.80;99.90
51655;DHT22;37732;53.106;7.030;2023-08-17T04:46:44;15.80;99.90
51655;DHT22;37732;53.106;7.030;2023-08-17T04:49:11;15.80;99.90
51655;DHT22;37732;53.106;7.030;2023-08-17T04:51:37;15.80;99.90
51655;DHT22;37732;53.106;7.030;2023-08-17T04:54:06;15.70;99.90
51655;DHT22;37732;53.106;7.030;2023-08-17T04:56:35;15.80;99.90
51655;DHT22;37732;53.106;7.030;2023-08-17T04:59:01;15.80;99.90
51655;DHT22;37732;53.106;7.030;2023-08-17T05:01:28;15.80;99.90
51655;DHT22;37732;53.106;7.030;2023-08-17T05:03:56;15.80;99.90
51655;DHT22;37732;53.106;7.030;2023-08-17T05:06:24;15.80;99.90
51655;DHT22;37732;53.106;7.030;2023-08-17T05:08:56;15.80;99.90
51655;DHT22;37732;53.106;7.030;2023-08-17T05:11:24;15.80;99.90
51655;DHT22;37732;53.106;7.030;2023-08-17T05:13:52;15.80;99.90
51655;DHT22;37732;53.106;7.030;2023-08-17T05:16:21;15.80;99.90
51655;DHT22;37732;53.106;7.030;2023-08-17T05:18:48;15.80;99.90
51655;DHT22;37732;53.106;7.030;2023-08-17T05:21:16;15.80;99.90
51655;DHT22;37732;53.106;7.030;2023-08-17T05:23:45;15.80;99.90
51655;DHT22;37732;53.106;7.030;2023-08-17T05:26:13;15.70;99.90
51655;DHT22;37732;53.106;7.030;2023-08-17T05:28:42;15.70;99.90
51655;DHT22;37732;53.106;7.030;2023-08-17T05:31:10;15.70;99.90
51655;DHT22;37732;53.106;7.030;2023-08-17T05:33:38;15.70;99.90
51655;DHT22;37732;53.106;7.030;2023-08-17T05:36:08;15.70;99.90
51655;DHT22;37732;53.106;7.030;2023-08-17T05:38:34;15.70;99.90
51655;DHT22;37732;53.106;7.030;2023-08-17T05:41:02;15.60;99.90
51655;DHT22;37732;53.106;7.030;2023-08-17T05:43:31;15.60;99.90
51655;DHT22;37732;53.106;7.030;2023-08-17T05:45:58;15.60;99.90
51655;DHT22;37732;53.106;7.030;2023-08-17T05:48:30;15.60;99.90
51655;DHT22;37732;53.106;7.030;2023-08-17T05:50:56;15.60;99.90
51655;DHT22;37732;53.106;7.030;2023-08-17T05:53:26;15.70;99.90
51655;DHT22;37732;53.106;7.030;2023-08-17T05:55:51;15.70;99.90
51655;DHT22;37732;53.106;7.030;2023-08-17T05:58:18;15.80;99.90
51655;DHT22;37732;53.106;7.030;2023-08-17T06:00:44;15.80;99.90
51655;DHT22;37732;53.106;7.030;2023-08-17T06:03:12;15.90;99.90
51655;DHT22;37732;53.106;7.030;2023-08-17T06:05:43;16.00;99.90
51655;DHT22;37732;53.106;7.030;2023-08-17T06:08:11;16.10;99.90
51655;DHT22;37732;53.106;7.030;2023-08-17T06:10:39;16.20;99.90
51655;DHT22;37732;53.106;7.030;2023-08-17T06:13:06;16.30;99.90
51655;DHT22;37732;53.106;7.030;2023-08-17T06:15:33;16.40;99.90
51655;DHT22;37732;53.106;7.030;2023-08-17T06:18:01;16.40;99.90
51655;DHT22;37732;53.106;7.030;2023-08-17T06:20:26;16.50;99.90
51655;DHT22;37732;53.106;7.030;2023-08-17T06:22:52;16.50;99.90
51655;DHT22;37732;53.106;7.030;2023-08-17T06:25:18;16.50;99.90
51655;DHT22;37732;53.106;7.030;2023-08-17T06:27:44;16.60;99.90
51655;DHT22;37732;53.106;7.030;2023-08-17T06:30:11;16.60;99.90
51655;DHT22;37732;53.106;7.030;2023-08-17T06:32:39;16.60;99.90
51655;DHT22;37732;53.106;7.030;2023-08-17T06:35:06;16.70;99.90
51655;DHT22;37732;53.106;7.030;2023-08-17T06:37:32;16.70;99.90
51655;DHT22;37732;53.106;7.030;2023-08-17T06:40:00;16.70;99.90
51655;DHT22;37732;53.106;7.030;2023-08-17T06:42:29;16.70;99.90
51655;DHT22;37732;53.106;7.030;2023-08-17T06:44:57;16.80;99.90
51655;DHT22;37732;53.106;7.030;2023-08-17T06:47:23;16.80;99.90
51655;DHT22;37732;53.106;7.030;2023-08-17T06:49:49;16.80;99.90
51655;DHT22;37732;53.106;7.030;2023-08-17T06:52:15;16.80;99.90
51655;DHT22;37732;53.106;7.030;2023-08-17T06:54:42;16.90;99.90
51655;DHT22;37732;53.106;7.030;2023-08-17T06:57:10;16.90;99.90
51655;DHT22;37732;53.106;7.030;2023-08-17T06:59:36;17.00;99.90
51655;DHT22;37732;53.106;7.030;2023-08-17T07:02:02;17.10;99.90
51655;DHT22;37732;53.106;7.030;2023-08-17T07:04:33;17.20;99.90
51655;DHT22;37732;53.106;7.030;2023-08-17T07:07:02;17.30;99.90
51655;DHT22;37732;53.106;7.030;2023-08-17T07:09:31;17.30;99.90
51655;DHT22;37732;53.106;7.030;2023-08-17T07:11:59;17.30;99.90
51655;DHT22;37732;53.106;7.030;2023-08-17T07:14:28;17.30;99.90
51655;DHT22;37732;53.106;7.030;2023-08-17T07:16:55;17.40;99.90
51655;DHT22;37732;53.106;7.030;2023-08-17T07:19:25;17.40;99.90
51655;DHT22;37732;53.106;7.030;2023-08-17T07:21:52;17.40;99.90
51655;DHT22;37732;53.106;7.030;2023-08-17T07:24:19;17.50;99.90
51655;DHT22;37732;53.106;7.030;2023-08-17T07:26:46;17.60;99.90
51655;DHT22;37732;53.106;7.030;2023-08-17T07:29:17;17.70;99.90
51655;DHT22;37732;53.106;7.030;2023-08-17T07:31:43;17.80;99.90
51655;DHT22;37732;53.106;7.030;2023-08-17T07:34:13;17.80;99.90
51655;DHT22;37732;53.106;7.030;2023-08-17T07:36:41;17.90;99.90
51655;DHT22;37732;53.106;7.030;2023-08-17T07:39:09;17.90;99.90
51655;DHT22;37732;53.106;7.030;2023-08-17T07:41:38;17.80;99.90
51655;DHT22;37732;53.106;7.030;2023-08-17T07:44:04;17.80;99.90
51655;DHT22;37732;53.106;7.030;2023-08-17T07:46:35;17.80;99.90
51655;DHT22;37732;53.106;7.030;2023-08-17T07:49:03;17.90;99.90
51655;DHT22;37732;53.106;7.030;2023-08-17T07:51:29;17.90;99.90
51655;DHT22;37732;53.106;7.030;2023-08-17T07:53:58;17.90;99.90
51655;DHT22;37732;53.106;7.030;2023-08-17T07:56:26;17.80;99.90
51655;DHT22;37732;53.106;7.030;2023-08-17T07:58:53;17.80;99.90
51655;DHT22;37732;53.106;7.030;2023-08-17T08:01:24;17.80;99.90
51655;DHT22;37732;53.106;7.030;2023-08-17T08:03:51;17.80;99.90
51655;DHT22;37732;53.106;7.030;2023-08-17T08:06:20;17.90;99.90
51655;DHT22;37732;53.106;7.030;2023-08-17T08:08:48;18.00;99.90
51655;DHT22;37732;53.106;7.030;2023-08-17T08:11:15;18.10;99.90
51655;DHT22;37732;53.106;7.030;2023-08-17T08:13:42;18.20;99.90
51655;DHT22;37732;53.106;7.030;2023-08-17T08:16:13;18.30;99.90
51655;DHT22;37732;53.106;7.030;2023-08-17T08:18:40;18.40;99.90
51655;DHT22;37732;53.106;7.030;2023-08-17T08:21:08;18.40;99.90
51655;DHT22;37732;53.106;7.030;2023-08-17T08:23:35;18.40;99.90
51655;DHT22;37732;53.106;7.030;2023-08-17T08:26:02;18.40;99.90
51655;DHT22;37732;53.106;7.030;2023-08-17T08:28:28;18.50;99.90
51655;DHT22;37732;53.106;7.030;2023-08-17T08:30:54;18.50;99.90
51655;DHT22;37732;53.106;7.030;2023-08-17T08:33:20;18.50;99.90
51655;DHT22;37732;53.106;7.030;2023-08-17T08:35:48;18.50;99.90
51655;DHT22;37732;53.106;7.030;2023-08-17T08:38:16;18.60;99.90
51655;DHT22;37732;53.106;7.030;2023-08-17T08:40:42;18.60;99.90
51655;DHT22;37732;53.106;7.030;2023-08-17T08:43:14;18.60;99.90
51655;DHT22;37732;53.106;7.030;2023-08-17T08:45:44;18.60;99.90
51655;DHT22;37732;53.106;7.030;2023-08-17T08:48:11;18.60;99.90
51655;DHT22;37732;53.106;7.030;2023-08-17T08:50:40;18.60;99.90
51655;DHT22;37732;53.106;7.030;2023-08-17T08:53:13;18.70;99.90
51655;DHT22;37732;53.106;7.030;2023-08-17T08:55:50;18.80;99.90
51655;DHT22;37732;53.106;7.030;2023-08-17T08:58:25;18.90;99.90
51655;DHT22;37732;53.106;7.030;2023-08-17T09:00:52;19.00;99.90
51655;DHT22;37732;53.106;7.030;2023-08-17T09:03:19;19.00;99.90
51655;DHT22;37732;53.106;7.030;2023-08-17T09:05:49;18.90;99.90
51655;DHT22;37732;53.106;7.030;2023-08-17T09:08:22;18.90;99.90
51655;DHT22;37732;53.106;7.030;2023-08-17T09:10:49;19.00;99.90
51655;DHT22;37732;53.106;7.030;2023-08-17T09:13:18;19.10;99.90
51655;DHT22;37732;53.106;7.030;2023-08-17T09:15:45;19.20;99.90
51655;DHT22;37732;53.106;7.030;2023-08-17T09:18:16;19.30;99.90
51655;DHT22;37732;53.106;7.030;2023-08-17T09:20:44;19.30;99.90
51655;DHT22;37732;53.106;7.030;2023-08-17T09:23:16;19.30;99.90
51655;DHT22;37732;53.106;7.030;2023-08-17T09:25:49;19.40;99.90
51655;DHT22;37732;53.106;7.030;2023-08-17T09:28:18;19.50;99.90
51655;DHT22;37732;53.106;7.030;2023-08-17T09:31:02;19.60;99.90
51655;DHT22;37732;53.106;7.030;2023-08-17T09:33:31;19.70;99.90
51655;DHT22;37732;53.106;7.030;2023-08-17T09:36:00;19.70;99.90
51655;DHT22;37732;53.106;7.030;2023-08-17T09:38:29;19.70;99.90
51655;DHT22;37732;53.106;7.030;2023-08-17T09:40:57;19.70;99.90
51655;DHT22;37732;53.106;7.030;2023-08-17T09:43:25;19.70;99.90
51655;DHT22;37732;53.106;7.030;2023-08-17T09:45:54;19.80;99.90
51655;DHT22;37732;53.106;7.030;2023-08-17T09:48:20;19.80;99.90
51655;DHT22;37732;53.106;7.030;2023-08-17T09:50:49;19.90;99.90
51655;DHT22;37732;53.106;7.030;2023-08-17T09:53:18;19.90;99.90
51655;DHT22;37732;53.106;7.030;2023-08-17T09:55:46;20.00;99.90
51655;DHT22;37732;53.106;7.030;2023-08-17T09:58:14;20.10;99.90
51655;DHT22;37732;53.106;7.030;2023-08-17T10:00:48;20.10;99.90
51655;DHT22;37732;53.106;7.030;2023-08-17T10:03:19;20.20;99.90
51655;DHT22;37732;53.106;7.030;2023-08-17T10:05:52;20.30;99.90
51655;DHT22;37732;53.106;7.030;2023-08-17T10:08:24;20.40;99.90
51655;DHT22;37732;53.106;7.030;2023-08-17T10:10:52;20.60;99.90
51655;DHT22;37732;53.106;7.030;2023-08-17T10:13:51;20.80;99.90
51655;DHT22;37732;53.106;7.030;2023-08-17T10:21:27;21.40;99.90
51655;DHT22;37732;53.106;7.030;2023-08-17T10:23:58;21.60;99.90
51655;DHT22;37732;53.106;7.030;2023-08-17T10:26:26;21.70;99.90
51655;DHT22;37732;53.106;7.030;2023-08-17T10:28:54;21.60;99.90
51655;DHT22;37732;53.106;7.030;2023-08-17T10:31:23;21.60;99.90
51655;DHT22;37732;53.106;7.030;2023-08-17T10:33:52;21.50;99.90
51655;DHT22;37732;53.106;7.030;2023-08-17T10:36:18;21.40;99.90
51655;DHT22;37732;53.106;7.030;2023-08-17T10:39:22;21.40;99.90
51655;DHT22;37732;53.106;7.030;2023-08-17T10:41:50;21.40;99.90
51655;DHT22;37732;53.106;7.030;2023-08-17T10:44:49;21.40;99.90
51655;DHT22;37732;53.106;7.030;2023-08-17T10:47:25;21.40;99.90
51655;DHT22;37732;53.106;7.030;2023-08-17T10:50:06;21.40;99.90
51655;DHT22;37732;53.106;7.030;2023-08-17T10:52:36;21.40;99.90
51655;DHT22;37732;53.106;7.030;2023-08-17T10:55:09;21.40;99.90
51655;DHT22;37732;53.106;7.030;2023-08-17T10:57:41;21.50;99.90
51655;DHT22;37732;53.106;7.030;2023-08-17T11:02:57;21.40;99.90
51655;DHT22;37732;53.106;7.030;2023-08-17T11:08:06;21.40;99.90
51655;DHT22;37732;53.106;7.030;2023-08-17T11:10:35;21.40;99.90
51655;DHT22;37732;53.106;7.030;2023-08-17T11:13:03;21.50;99.90
51655;DHT22;37732;53.106;7.030;2023-08-17T11:15:42;21.60;99.90
51655;DHT22;37732;53.106;7.030;2023-08-17T11:18:10;21.70;99.90
51655;DHT22;37732;53.106;7.030;2023-08-17T11:20:40;21.80;99.90
51655;DHT22;37732;53.106;7.030;2023-08-17T11:23:07;21.80;99.90
51655;DHT22;37732;53.106;7.030;2023-08-17T11:25:36;21.80;99.90
51655;DHT22;37732;53.106;7.030;2023-08-17T11:28:08;21.80;99.90
51655;DHT22;37732;53.106;7.030;2023-08-17T11:30:36;21.80;99.90
51655;DHT22;37732;53.106;7.030;2023-08-17T11:33:06;21.80;99.90
51655;DHT22;37732;53.106;7.030;2023-08-17T11:35:35;22.00;99.90
51655;DHT22;37732;53.106;7.030;2023-08-17T11:38:02;22.20;99.90
51655;DHT22;37732;53.106;7.030;2023-08-17T11:40:32;22.40;99.90
51655;DHT22;37732;53.106;7.030;2023-08-17T11:43:01;22.50;99.90
51655;DHT22;37732;53.106;7.030;2023-08-17T11:45:27;22.40;99.90
51655;DHT22;37732;53.106;7.030;2023-08-17T11:47:53;22.50;99.90
51655;DHT22;37732;53.106;7.030;2023-08-17T11:50:21;22.40;99.90
51655;DHT22;37732;53.106;7.030;2023-08-17T11:52:50;22.60;99.90
51655;DHT22;37732;53.106;7.030;2023-08-17T11:55:19;22.70;99.90
51655;DHT22;37732;53.106;7.030;2023-08-17T11:57:46;22.70;99.90
51655;DHT22;37732;53.106;7.030;2023-08-17T12:00:20;22.70;99.90
51655;DHT22;37732;53.106;7.030;2023-08-17T12:02:50;22.80;99.90
51655;DHT22;37732;53.106;7.030;2023-08-17T12:05:25;22.90;99.90
51655;DHT22;37732;53.106;7.030;2023-08-17T12:07:55;22.90;99.90
51655;DHT22;37732;53.106;7.030;2023-08-17T12:10:21;23.10;99.90
51655;DHT22;37732;53.106;7.030;2023-08-17T12:12:52;23.20;99.90
51655;DHT22;37732;53.106;7.030;2023-08-17T12:15:19;23.10;99.90
51655;DHT22;37732;53.106;7.030;2023-08-17T12:17:49;23.10;99.90
51655;DHT22;37732;53.106;7.030;2023-08-17T12:20:20;22.90;99.90
51655;DHT22;37732;53.106;7.030;2023-08-17T12:22:49;22.90;99.90
51655;DHT22;37732;53.106;7.030;2023-08-17T12:25:15;22.80;99.90
51655;DHT22;37732;53.106;7.030;2023-08-17T12:27:43;22.90;99.90
51655;DHT22;37732;53.106;7.030;2023-08-17T12:30:23;22.90;99.90
51655;DHT22;37732;53.106;7.030;2023-08-17T12:32:49;22.90;99.90
51655;DHT22;37732;53.106;7.030;2023-08-17T12:35:17;22.70;99.90
51655;DHT22;37732;53.106;7.030;2023-08-17T12:37:47;22.60;99.90
51655;DHT22;37732;53.106;7.030;2023-08-17T12:40:13;22.40;99.90
51655;DHT22;37732;53.106;7.030;2023-08-17T12:42:40;22.30;99.90
51655;DHT22;37732;53.106;7.030;2023-08-17T12:45:06;22.10;99.90
51655;DHT22;37732;53.106;7.030;2023-08-17T12:47:33;22.10;99.90
51655;DHT22;37732;53.106;7.030;2023-08-17T12:50:01;22.00;99.90
51655;DHT22;37732;53.106;7.030;2023-08-17T12:52:29;22.00;99.90
51655;DHT22;37732;53.106;7.030;2023-08-17T12:54:55;22.00;99.90
51655;DHT22;37732;53.106;7.030;2023-08-17T12:57:22;21.90;99.90
51655;DHT22;37732;53.106;7.030;2023-08-17T12:59:50;21.90;99.90
51655;DHT22;37732;53.106;7.030;2023-08-17T13:02:20;21.80;99.90
51655;DHT22;37732;53.106;7.030;2023-08-17T13:04:46;21.70;99.90
51655;DHT22;37732;53.106;7.030;2023-08-17T13:07:14;21.60;99.90
51655;DHT22;37732;53.106;7.030;2023-08-17T13:09:44;21.60;99.90
51655;DHT22;37732;53.106;7.030;2023-08-17T13:12:14;21.60;99.90
51655;DHT22;37732;53.106;7.030;2023-08-17T13:14:39;21.60;99.90
51655;DHT22;37732;53.106;7.030;2023-08-17T13:17:05;21.60;99.90
51655;DHT22;37732;53.106;7.030;2023-08-17T13:19:31;21.60;99.90
51655;DHT22;37732;53.106;7.030;2023-08-17T13:22:00;21.60;99.90
51655;DHT22;37732;53.106;7.030;2023-08-17T13:24:29;21.60;99.90
51655;DHT22;37732;53.106;7.030;2023-08-17T13:26:58;21.60;99.90
51655;DHT22;37732;53.106;7.030;2023-08-17T13:29:23;21.50;99.90
51655;DHT22;37732;53.106;7.030;2023-08-17T13:31:50;21.50;99.90
51655;DHT22;37732;53.106;7.030;2023-08-17T13:34:18;21.40;99.90
51655;DHT22;37732;53.106;7.030;2023-08-17T13:36:44;21.30;99.90
51655;DHT22;37732;53.106;7.030;2023-08-17T13:39:10;21.30;99.90
51655;DHT22;37732;53.106;7.030;2023-08-17T13:41:37;21.30;99.90
51655;DHT22;37732;53.106;7.030;2023-08-17T13:44:05;21.30;99.90
51655;DHT22;37732;53.106;7.030;2023-08-17T13:46:32;21.20;99.90
51655;DHT22;37732;53.106;7.030;2023-08-17T13:48:59;21.20;99.90
51655;DHT22;37732;53.106;7.030;2023-08-17T13:51:27;21.20;99.90
51655;DHT22;37732;53.106;7.030;2023-08-17T13:53:55;21.20;99.90
51655;DHT22;37732;53.106;7.030;2023-08-17T13:56:24;21.20;99.90
51655;DHT22;37732;53.106;7.030;2023-08-17T13:58:52;21.20;99.90
51655;DHT22;37732;53.106;7.030;2023-08-17T14:01:18;21.20;99.90
51655;DHT22;37732;53.106;7.030;2023-08-17T14:03:46;21.10;99.90
51655;DHT22;37732;53.106;7.030;2023-08-17T14:06:12;21.20;99.90
51655;DHT22;37732;53.106;7.030;2023-08-17T14:08:41;21.20;99.90
51655;DHT22;37732;53.106;7.030;2023-08-17T14:11:12;21.20;99.90
51655;DHT22;37732;53.106;7.030;2023-08-17T14:13:41;21.20;99.90
51655;DHT22;37732;53.106;7.030;2023-08-17T14:16:09;21.10;99.90
51655;DHT22;37732;53.106;7.030;2023-08-17T14:18:41;21.10;99.90
51655;DHT22;37732;53.106;7.030;2023-08-17T14:21:09;21.10;99.90
51655;DHT22;37732;53.106;7.030;2023-08-17T14:23:38;21.10;99.90
51655;DHT22;37732;53.106;7.030;2023-08-17T14:26:07;21.10;99.90
51655;DHT22;37732;53.106;7.030;2023-08-17T14:28:33;21.10;99.90
51655;DHT22;37732;53.106;7.030;2023-08-17T14:30:59;21.10;99.90
51655;DHT22;37732;53.106;7.030;2023-08-17T14:33:25;21.10;99.90
51655;DHT22;37732;53.106;7.030;2023-08-17T14:35:51;21.10;99.90
51655;DHT22;37732;53.106;7.030;2023-08-17T14:38:19;21.00;99.90
51655;DHT22;37732;53.106;7.030;2023-08-17T14:40:48;21.00;99.90
51655;DHT22;37732;53.106;7.030;2023-08-17T14:43:17;20.90;99.90
51655;DHT22;37732;53.106;7.030;2023-08-17T14:45:43;20.90;99.90
51655;DHT22;37732;53.106;7.030;2023-08-17T14:48:09;20.90;99.90
51655;DHT22;37732;53.106;7.030;2023-08-17T14:50:37;20.80;99.90
51655;DHT22;37732;53.106;7.030;2023-08-17T14:53:05;20.80;99.90
51655;DHT22;37732;53.106;7.030;2023-08-17T14:55:36;20.80;99.90
51655;DHT22;37732;53.106;7.030;2023-08-17T14:58:02;20.80;99.90
51655;DHT22;37732;53.106;7.030;2023-08-17T15:00:28;20.80;99.90
51655;DHT22;37732;53.106;7.030;2023-08-17T15:02:57;20.80;99.90
51655;DHT22;37732;53.106;7.030;2023-08-17T15:05:26;20.80;99.90
51655;DHT22;37732;53.106;7.030;2023-08-17T15:07:52;20.80;99.90
51655;DHT22;37732;53.106;7.030;2023-08-17T15:10:18;20.80;99.90
51655;DHT22;37732;53.106;7.030;2023-08-17T15:12:47;20.90;99.90
51655;DHT22;37732;53.106;7.030;2023-08-17T15:15:16;20.80;99.90
51655;DHT22;37732;53.106;7.030;2023-08-17T15:17:43;20.80;99.90
51655;DHT22;37732;53.106;7.030;2023-08-17T15:20:12;20.80;99.90
51655;DHT22;37732;53.106;7.030;2023-08-17T15:22:38;20.70;99.90
51655;DHT22;37732;53.106;7.030;2023-08-17T15:25:04;20.70;99.90
51655;DHT22;37732;53.106;7.030;2023-08-17T15:27:30;20.70;99.90
51655;DHT22;37732;53.106;7.030;2023-08-17T15:29:58;20.70;99.90
51655;DHT22;37732;53.106;7.030;2023-08-17T15:32:24;20.70;99.90
51655;DHT22;37732;53.106;7.030;2023-08-17T15:34:50;20.70;99.90
51655;DHT22;37732;53.106;7.030;2023-08-17T15:37:18;20.60;99.90
51655;DHT22;37732;53.106;7.030;2023-08-17T15:39:47;20.60;99.90
51655;DHT22;37732;53.106;7.030;2023-08-17T15:42:13;20.50;99.90
51655;DHT22;37732;53.106;7.030;2023-08-17T15:44:39;20.50;99.90
51655;DHT22;37732;53.106;7.030;2023-08-17T15:47:06;20.50;99.90
51655;DHT22;37732;53.106;7.030;2023-08-17T15:49:34;20.40;99.90
51655;DHT22;37732;53.106;7.030;2023-08-17T15:52:03;20.40;99.90
51655;DHT22;37732;53.106;7.030;2023-08-17T15:54:29;20.40;99.90